Anta, Peru
Current Conditions -  °F | °C
As of 2:00 PM on Friday 28 Nov 2014 (Local Time) from SPRU Reporting Station
Few Clouds Few Clouds  
Wind Chill: 72°   Ceiling: Unl
Heat Index: 72°   Visibility: 6mi
Dew Point: 59°   Wind: 14mph
Humidity: 64%   Direction: 130°SE
Pressure: 29.83"   Gusts: NA
Location:  9.35°S, 77.6°W
Report Text: SPRU 281900Z 13012KT 9000 FEW030 22/15 Q1010 RMK PP000
Loading
Personal Weather Stations






























Interactive Weather Map New forecast layout! Learn more

10-Day Weather Forecast

Advertisements
Track Severe Weather on mobile